sensor_id;sensor_type;location;lat;lon;timestamp;P1;durP1;ratioP1;P2;durP2;ratioP2
6823;SDS011;58633;49.470;11.004;2022-07-22T00:02:09;6.65;;;5.82;;
6823;SDS011;58633;49.470;11.004;2022-07-22T00:04:34;7.10;;;5.60;;
6823;SDS011;58633;49.470;11.004;2022-07-22T00:07:00;6.30;;;5.22;;
6823;SDS011;58633;49.470;11.004;2022-07-22T00:09:25;6.90;;;6.03;;
6823;SDS011;58633;49.470;11.004;2022-07-22T00:11:51;6.65;;;6.03;;
6823;SDS011;58633;49.470;11.004;2022-07-22T00:14:17;6.30;;;5.63;;
6823;SDS011;58633;49.470;11.004;2022-07-22T00:16:43;6.57;;;5.97;;
6823;SDS011;58633;49.470;11.004;2022-07-22T00:19:08;6.65;;;5.57;;
6823;SDS011;58633;49.470;11.004;2022-07-22T00:21:34;6.80;;;5.55;;
6823;SDS011;58633;49.470;11.004;2022-07-22T00:23:59;7.38;;;5.32;;
6823;SDS011;58633;49.470;11.004;2022-07-22T00:26:25;6.43;;;5.70;;
6823;SDS011;58633;49.470;11.004;2022-07-22T00:28:51;6.22;;;5.60;;
6823;SDS011;58633;49.470;11.004;2022-07-22T00:31:16;8.35;;;5.97;;
6823;SDS011;58633;49.470;11.004;2022-07-22T00:33:42;7.72;;;6.38;;
6823;SDS011;58633;49.470;11.004;2022-07-22T00:36:07;6.88;;;5.50;;
6823;SDS011;58633;49.470;11.004;2022-07-22T00:38:33;8.52;;;5.70;;
6823;SDS011;58633;49.470;11.004;2022-07-22T00:40:59;6.72;;;5.78;;
6823;SDS011;58633;49.470;11.004;2022-07-22T00:43:25;12.00;;;8.90;;
6823;SDS011;58633;49.470;11.004;2022-07-22T00:45:50;7.63;;;6.65;;
6823;SDS011;58633;49.470;11.004;2022-07-22T00:48:16;9.80;;;8.55;;
6823;SDS011;58633;49.470;11.004;2022-07-22T00:50:42;6.43;;;5.72;;
6823;SDS011;58633;49.470;11.004;2022-07-22T00:53:07;6.68;;;5.95;;
6823;SDS011;58633;49.470;11.004;2022-07-22T00:55:34;7.20;;;5.93;;
6823;SDS011;58633;49.470;11.004;2022-07-22T00:58:00;8.65;;;6.13;;
6823;SDS011;58633;49.470;11.004;2022-07-22T01:00:27;7.63;;;5.93;;
6823;SDS011;58633;49.470;11.004;2022-07-22T01:02:52;6.65;;;6.00;;
6823;SDS011;58633;49.470;11.004;2022-07-22T01:05:18;8.07;;;6.07;;
6823;SDS011;58633;49.470;11.004;2022-07-22T01:07:44;6.57;;;5.90;;
6823;SDS011;58633;49.470;11.004;2022-07-22T01:10:10;6.80;;;6.07;;
6823;SDS011;58633;49.470;11.004;2022-07-22T01:12:36;7.15;;;6.43;;
6823;SDS011;58633;49.470;11.004;2022-07-22T01:15:02;7.88;;;6.43;;
6823;SDS011;58633;49.470;11.004;2022-07-22T01:17:28;7.00;;;6.30;;
6823;SDS011;58633;49.470;11.004;2022-07-22T01:19:58;7.72;;;6.22;;
6823;SDS011;58633;49.470;11.004;2022-07-22T01:22:30;7.53;;;6.35;;
6823;SDS011;58633;49.470;11.004;2022-07-22T01:24:56;6.75;;;6.10;;
6823;SDS011;58633;49.470;11.004;2022-07-22T01:27:21;8.38;;;6.85;;
6823;SDS011;58633;49.470;11.004;2022-07-22T01:29:47;7.72;;;5.90;;
6823;SDS011;58633;49.470;11.004;2022-07-22T01:32:12;7.68;;;6.07;;
6823;SDS011;58633;49.470;11.004;2022-07-22T01:34:38;7.28;;;6.28;;
6823;SDS011;58633;49.470;11.004;2022-07-22T01:37:03;8.77;;;6.97;;
6823;SDS011;58633;49.470;11.004;2022-07-22T01:39:29;7.47;;;6.53;;
6823;SDS011;58633;49.470;11.004;2022-07-22T01:41:54;6.85;;;6.20;;
6823;SDS011;58633;49.470;11.004;2022-07-22T01:44:20;7.90;;;6.38;;
6823;SDS011;58633;49.470;11.004;2022-07-22T01:46:45;8.73;;;7.05;;
6823;SDS011;58633;49.470;11.004;2022-07-22T01:49:11;8.77;;;7.07;;
6823;SDS011;58633;49.470;11.004;2022-07-22T01:51:37;8.50;;;6.57;;
6823;SDS011;58633;49.470;11.004;2022-07-22T01:54:02;8.40;;;6.53;;
6823;SDS011;58633;49.470;11.004;2022-07-22T01:56:28;8.40;;;6.95;;
6823;SDS011;58633;49.470;11.004;2022-07-22T01:58:53;7.15;;;6.45;;
6823;SDS011;58633;49.470;11.004;2022-07-22T02:01:19;7.60;;;6.82;;
6823;SDS011;58633;49.470;11.004;2022-07-22T02:03:44;7.43;;;6.72;;
6823;SDS011;58633;49.470;11.004;2022-07-22T02:06:10;11.55;;;6.70;;
6823;SDS011;58633;49.470;11.004;2022-07-22T02:08:35;9.02;;;6.95;;
6823;SDS011;58633;49.470;11.004;2022-07-22T02:11:01;7.35;;;6.45;;
6823;SDS011;58633;49.470;11.004;2022-07-22T02:13:26;8.02;;;7.25;;
6823;SDS011;58633;49.470;11.004;2022-07-22T02:15:52;8.95;;;7.22;;
6823;SDS011;58633;49.470;11.004;2022-07-22T02:18:18;8.63;;;6.97;;
6823;SDS011;58633;49.470;11.004;2022-07-22T02:20:44;7.35;;;6.53;;
6823;SDS011;58633;49.470;11.004;2022-07-22T02:23:10;8.98;;;6.80;;
6823;SDS011;58633;49.470;11.004;2022-07-22T02:25:36;9.68;;;7.13;;
6823;SDS011;58633;49.470;11.004;2022-07-22T02:28:03;9.40;;;6.72;;
6823;SDS011;58633;49.470;11.004;2022-07-22T02:30:28;10.18;;;7.38;;
6823;SDS011;58633;49.470;11.004;2022-07-22T02:32:55;8.60;;;7.30;;
6823;SDS011;58633;49.470;11.004;2022-07-22T02:35:21;9.23;;;7.43;;
6823;SDS011;58633;49.470;11.004;2022-07-22T02:37:47;9.45;;;6.85;;
6823;SDS011;58633;49.470;11.004;2022-07-22T02:40:12;7.63;;;6.53;;
6823;SDS011;58633;49.470;11.004;2022-07-22T02:42:38;7.45;;;6.68;;
6823;SDS011;58633;49.470;11.004;2022-07-22T02:45:03;7.53;;;6.75;;
6823;SDS011;58633;49.470;11.004;2022-07-22T02:47:29;7.63;;;6.93;;
6823;SDS011;58633;49.470;11.004;2022-07-22T02:49:55;8.20;;;7.05;;
6823;SDS011;58633;49.470;11.004;2022-07-22T02:52:20;9.90;;;7.00;;
6823;SDS011;58633;49.470;11.004;2022-07-22T02:54:46;7.72;;;6.80;;
6823;SDS011;58633;49.470;11.004;2022-07-22T02:57:11;8.93;;;7.35;;
6823;SDS011;58633;49.470;11.004;2022-07-22T02:59:37;8.68;;;7.47;;
6823;SDS011;58633;49.470;11.004;2022-07-22T03:02:03;8.07;;;6.93;;
6823;SDS011;58633;49.470;11.004;2022-07-22T03:04:28;8.18;;;6.85;;
6823;SDS011;58633;49.470;11.004;2022-07-22T03:06:54;7.80;;;7.07;;
6823;SDS011;58633;49.470;11.004;2022-07-22T03:09:20;11.45;;;7.47;;
6823;SDS011;58633;49.470;11.004;2022-07-22T03:11:45;9.10;;;7.05;;
6823;SDS011;58633;49.470;11.004;2022-07-22T03:14:11;14.10;;;7.20;;
6823;SDS011;58633;49.470;11.004;2022-07-22T03:16:37;10.55;;;7.43;;
6823;SDS011;58633;49.470;11.004;2022-07-22T03:19:02;9.40;;;7.85;;
6823;SDS011;58633;49.470;11.004;2022-07-22T03:21:28;9.23;;;7.88;;
6823;SDS011;58633;49.470;11.004;2022-07-22T03:23:54;8.73;;;7.38;;
6823;SDS011;58633;49.470;11.004;2022-07-22T03:26:20;9.07;;;7.40;;
6823;SDS011;58633;49.470;11.004;2022-07-22T03:28:47;8.73;;;7.75;;
6823;SDS011;58633;49.470;11.004;2022-07-22T03:31:13;9.65;;;7.53;;
6823;SDS011;58633;49.470;11.004;2022-07-22T03:33:39;10.10;;;7.65;;
6823;SDS011;58633;49.470;11.004;2022-07-22T03:36:04;8.98;;;7.95;;
6823;SDS011;58633;49.470;11.004;2022-07-22T03:38:30;7.70;;;6.97;;
6823;SDS011;58633;49.470;11.004;2022-07-22T03:40:56;8.75;;;7.78;;
6823;SDS011;58633;49.470;11.004;2022-07-22T03:43:22;9.88;;;7.53;;
6823;SDS011;58633;49.470;11.004;2022-07-22T03:45:47;11.85;;;7.43;;
6823;SDS011;58633;49.470;11.004;2022-07-22T03:48:13;9.05;;;7.65;;
6823;SDS011;58633;49.470;11.004;2022-07-22T03:50:39;9.90;;;7.43;;
6823;SDS011;58633;49.470;11.004;2022-07-22T03:53:04;9.00;;;7.50;;
6823;SDS011;58633;49.470;11.004;2022-07-22T03:55:30;8.70;;;7.80;;
6823;SDS011;58633;49.470;11.004;2022-07-22T03:57:55;8.48;;;7.43;;
6823;SDS011;58633;49.470;11.004;2022-07-22T04:00:21;9.38;;;8.07;;
6823;SDS011;58633;49.470;11.004;2022-07-22T04:02:46;7.93;;;6.68;;
6823;SDS011;58633;49.470;11.004;2022-07-22T04:05:12;8.82;;;7.95;;
6823;SDS011;58633;49.470;11.004;2022-07-22T04:07:39;9.98;;;7.90;;
6823;SDS011;58633;49.470;11.004;2022-07-22T04:10:04;10.70;;;7.63;;
6823;SDS011;58633;49.470;11.004;2022-07-22T04:12:32;9.02;;;7.82;;
6823;SDS011;58633;49.470;11.004;2022-07-22T04:15:02;8.98;;;8.07;;
6823;SDS011;58633;49.470;11.004;2022-07-22T04:17:29;9.35;;;7.97;;
6823;SDS011;58633;49.470;11.004;2022-07-22T04:19:55;8.90;;;7.70;;
6823;SDS011;58633;49.470;11.004;2022-07-22T04:22:20;9.93;;;7.88;;
6823;SDS011;58633;49.470;11.004;2022-07-22T04:24:46;9.10;;;7.40;;
6823;SDS011;58633;49.470;11.004;2022-07-22T04:27:11;10.20;;;7.78;;
6823;SDS011;58633;49.470;11.004;2022-07-22T04:29:37;10.75;;;8.07;;
6823;SDS011;58633;49.470;11.004;2022-07-22T04:32:02;10.02;;;8.05;;
6823;SDS011;58633;49.470;11.004;2022-07-22T04:34:29;10.70;;;8.35;;
6823;SDS011;58633;49.470;11.004;2022-07-22T04:36:55;10.35;;;7.72;;
6823;SDS011;58633;49.470;11.004;2022-07-22T04:39:20;9.13;;;8.23;;
6823;SDS011;58633;49.470;11.004;2022-07-22T04:41:46;9.70;;;8.15;;
6823;SDS011;58633;49.470;11.004;2022-07-22T04:44:11;9.32;;;8.43;;
6823;SDS011;58633;49.470;11.004;2022-07-22T04:46:37;8.40;;;7.60;;
6823;SDS011;58633;49.470;11.004;2022-07-22T04:49:02;11.05;;;8.50;;
6823;SDS011;58633;49.470;11.004;2022-07-22T04:51:28;9.50;;;8.48;;
6823;SDS011;58633;49.470;11.004;2022-07-22T04:53:54;10.23;;;7.78;;
6823;SDS011;58633;49.470;11.004;2022-07-22T04:56:20;12.18;;;8.07;;
6823;SDS011;58633;49.470;11.004;2022-07-22T04:58:46;10.90;;;8.63;;
6823;SDS011;58633;49.470;11.004;2022-07-22T05:01:11;9.70;;;7.95;;
6823;SDS011;58633;49.470;11.004;2022-07-22T05:03:38;10.20;;;8.38;;
6823;SDS011;58633;49.470;11.004;2022-07-22T05:06:04;10.80;;;8.25;;
6823;SDS011;58633;49.470;11.004;2022-07-22T05:08:30;12.32;;;8.70;;
6823;SDS011;58633;49.470;11.004;2022-07-22T05:10:55;10.27;;;8.27;;
6823;SDS011;58633;49.470;11.004;2022-07-22T05:13:21;10.85;;;8.40;;
6823;SDS011;58633;49.470;11.004;2022-07-22T05:15:46;9.98;;;8.40;;
6823;SDS011;58633;49.470;11.004;2022-07-22T05:18:12;9.93;;;8.27;;
6823;SDS011;58633;49.470;11.004;2022-07-22T05:20:37;11.80;;;8.77;;
6823;SDS011;58633;49.470;11.004;2022-07-22T05:23:03;11.07;;;8.18;;
6823;SDS011;58633;49.470;11.004;2022-07-22T05:25:29;12.70;;;7.80;;
6823;SDS011;58633;49.470;11.004;2022-07-22T05:27:54;11.73;;;8.45;;
6823;SDS011;58633;49.470;11.004;2022-07-22T05:30:20;11.48;;;8.40;;
6823;SDS011;58633;49.470;11.004;2022-07-22T05:32:46;9.07;;;8.18;;
6823;SDS011;58633;49.470;11.004;2022-07-22T05:35:12;10.82;;;8.63;;
6823;SDS011;58633;49.470;11.004;2022-07-22T05:37:37;9.32;;;8.05;;
6823;SDS011;58633;49.470;11.004;2022-07-22T05:40:03;9.48;;;7.75;;
6823;SDS011;58633;49.470;11.004;2022-07-22T05:42:29;9.85;;;8.80;;
6823;SDS011;58633;49.470;11.004;2022-07-22T05:44:54;13.38;;;8.05;;
6823;SDS011;58633;49.470;11.004;2022-07-22T05:47:20;9.70;;;8.07;;
6823;SDS011;58633;49.470;11.004;2022-07-22T05:49:45;9.60;;;7.68;;
6823;SDS011;58633;49.470;11.004;2022-07-22T05:52:11;10.65;;;8.02;;
6823;SDS011;58633;49.470;11.004;2022-07-22T05:54:36;12.13;;;8.38;;
6823;SDS011;58633;49.470;11.004;2022-07-22T05:57:02;9.48;;;7.45;;
6823;SDS011;58633;49.470;11.004;2022-07-22T05:59:28;8.10;;;7.30;;
6823;SDS011;58633;49.470;11.004;2022-07-22T06:01:54;9.18;;;7.68;;
6823;SDS011;58633;49.470;11.004;2022-07-22T06:04:19;9.05;;;8.07;;
6823;SDS011;58633;49.470;11.004;2022-07-22T06:06:46;9.05;;;7.53;;
6823;SDS011;58633;49.470;11.004;2022-07-22T06:09:12;11.32;;;8.05;;
6823;SDS011;58633;49.470;11.004;2022-07-22T06:11:37;9.68;;;7.93;;
6823;SDS011;58633;49.470;11.004;2022-07-22T06:14:03;10.25;;;7.25;;
6823;SDS011;58633;49.470;11.004;2022-07-22T06:16:30;9.32;;;7.60;;
6823;SDS011;58633;49.470;11.004;2022-07-22T06:18:55;8.95;;;7.80;;
6823;SDS011;58633;49.470;11.004;2022-07-22T06:21:22;9.95;;;7.40;;
6823;SDS011;58633;49.470;11.004;2022-07-22T06:23:48;8.10;;;7.25;;
6823;SDS011;58633;49.470;11.004;2022-07-22T06:26:13;9.65;;;7.55;;
6823;SDS011;58633;49.470;11.004;2022-07-22T06:28:39;10.43;;;7.32;;
6823;SDS011;58633;49.470;11.004;2022-07-22T06:31:05;9.18;;;7.50;;
6823;SDS011;58633;49.470;11.004;2022-07-22T06:33:31;9.25;;;7.43;;
6823;SDS011;58633;49.470;11.004;2022-07-22T06:35:58;8.98;;;7.50;;
6823;SDS011;58633;49.470;11.004;2022-07-22T06:38:24;9.43;;;7.38;;
6823;SDS011;58633;49.470;11.004;2022-07-22T06:40:50;10.57;;;8.90;;
6823;SDS011;58633;49.470;11.004;2022-07-22T06:43:17;8.80;;;7.90;;
6823;SDS011;58633;49.470;11.004;2022-07-22T06:45:42;9.85;;;8.07;;
6823;SDS011;58633;49.470;11.004;2022-07-22T06:48:08;9.18;;;7.72;;
6823;SDS011;58633;49.470;11.004;2022-07-22T06:50:33;10.38;;;7.90;;
6823;SDS011;58633;49.470;11.004;2022-07-22T06:53:00;9.38;;;7.78;;
6823;SDS011;58633;49.470;11.004;2022-07-22T06:55:25;10.40;;;8.32;;
6823;SDS011;58633;49.470;11.004;2022-07-22T06:57:51;11.70;;;7.60;;
6823;SDS011;58633;49.470;11.004;2022-07-22T07:00:17;8.50;;;7.00;;
6823;SDS011;58633;49.470;11.004;2022-07-22T07:02:43;8.45;;;7.57;;
6823;SDS011;58633;49.470;11.004;2022-07-22T07:05:10;8.90;;;8.00;;
6823;SDS011;58633;49.470;11.004;2022-07-22T07:07:36;8.35;;;7.32;;
6823;SDS011;58633;49.470;11.004;2022-07-22T07:10:02;9.32;;;7.40;;
6823;SDS011;58633;49.470;11.004;2022-07-22T07:12:28;9.48;;;8.15;;
6823;SDS011;58633;49.470;11.004;2022-07-22T07:14:53;11.15;;;7.68;;
6823;SDS011;58633;49.470;11.004;2022-07-22T07:17:19;9.52;;;7.13;;
6823;SDS011;58633;49.470;11.004;2022-07-22T07:19:45;9.60;;;8.02;;
6823;SDS011;58633;49.470;11.004;2022-07-22T07:22:12;9.57;;;8.00;;
6823;SDS011;58633;49.470;11.004;2022-07-22T07:24:37;10.00;;;7.45;;
6823;SDS011;58633;49.470;11.004;2022-07-22T07:27:03;8.70;;;7.72;;
6823;SDS011;58633;49.470;11.004;2022-07-22T07:29:29;12.55;;;7.43;;
6823;SDS011;58633;49.470;11.004;2022-07-22T07:31:55;9.68;;;7.35;;
6823;SDS011;58633;49.470;11.004;2022-07-22T07:34:21;26.30;;;8.23;;
6823;SDS011;58633;49.470;11.004;2022-07-22T07:36:46;8.85;;;7.82;;
6823;SDS011;58633;49.470;11.004;2022-07-22T07:39:12;20.30;;;9.70;;
6823;SDS011;58633;49.470;11.004;2022-07-22T07:41:38;14.07;;;7.78;;
6823;SDS011;58633;49.470;11.004;2022-07-22T07:44:04;23.60;;;8.30;;
6823;SDS011;58633;49.470;11.004;2022-07-22T07:46:31;15.60;;;7.90;;
6823;SDS011;58633;49.470;11.004;2022-07-22T07:48:56;13.52;;;7.82;;
6823;SDS011;58633;49.470;11.004;2022-07-22T07:51:22;8.25;;;7.30;;
6823;SDS011;58633;49.470;11.004;2022-07-22T07:53:47;12.25;;;8.90;;
6823;SDS011;58633;49.470;11.004;2022-07-22T07:56:13;11.05;;;7.90;;
6823;SDS011;58633;49.470;11.004;2022-07-22T07:58:38;11.88;;;8.48;;
6823;SDS011;58633;49.470;11.004;2022-07-22T08:01:04;10.07;;;6.63;;
6823;SDS011;58633;49.470;11.004;2022-07-22T08:03:30;8.75;;;7.38;;
6823;SDS011;58633;49.470;11.004;2022-07-22T08:05:56;7.75;;;6.90;;
6823;SDS011;58633;49.470;11.004;2022-07-22T08:08:23;8.75;;;7.85;;
6823;SDS011;58633;49.470;11.004;2022-07-22T08:10:49;11.93;;;7.57;;
6823;SDS011;58633;49.470;11.004;2022-07-22T08:13:14;9.27;;;7.95;;
6823;SDS011;58633;49.470;11.004;2022-07-22T08:15:40;9.63;;;7.70;;
6823;SDS011;58633;49.470;11.004;2022-07-22T08:18:07;13.68;;;8.18;;
6823;SDS011;58633;49.470;11.004;2022-07-22T08:20:32;11.57;;;7.05;;
6823;SDS011;58633;49.470;11.004;2022-07-22T08:22:59;9.90;;;7.00;;
6823;SDS011;58633;49.470;11.004;2022-07-22T08:25:25;8.23;;;7.30;;
6823;SDS011;58633;49.470;11.004;2022-07-22T08:27:51;9.85;;;7.60;;
6823;SDS011;58633;49.470;11.004;2022-07-22T08:30:17;14.65;;;8.57;;
6823;SDS011;58633;49.470;11.004;2022-07-22T08:32:44;17.05;;;7.75;;
6823;SDS011;58633;49.470;11.004;2022-07-22T08:35:09;9.57;;;7.80;;
6823;SDS011;58633;49.470;11.004;2022-07-22T08:37:35;11.05;;;7.45;;
6823;SDS011;58633;49.470;11.004;2022-07-22T08:40:02;7.53;;;6.82;;
6823;SDS011;58633;49.470;11.004;2022-07-22T08:42:29;8.57;;;7.18;;
6823;SDS011;58633;49.470;11.004;2022-07-22T08:44:55;12.45;;;7.40;;
6823;SDS011;58633;49.470;11.004;2022-07-22T08:47:22;19.88;;;8.48;;
6823;SDS011;58633;49.470;11.004;2022-07-22T08:49:48;11.32;;;7.22;;
6823;SDS011;58633;49.470;11.004;2022-07-22T08:52:14;8.32;;;7.47;;
6823;SDS011;58633;49.470;11.004;2022-07-22T08:54:41;8.43;;;7.05;;
6823;SDS011;58633;49.470;11.004;2022-07-22T08:57:06;8.73;;;6.90;;
6823;SDS011;58633;49.470;11.004;2022-07-22T08:59:32;7.60;;;6.80;;
6823;SDS011;58633;49.470;11.004;2022-07-22T09:02:08;8.82;;;6.63;;
6823;SDS011;58633;49.470;11.004;2022-07-22T09:04:49;8.27;;;6.80;;
6823;SDS011;58633;49.470;11.004;2022-07-22T09:07:25;9.50;;;6.70;;
6823;SDS011;58633;49.470;11.004;2022-07-22T09:09:58;8.80;;;7.28;;
6823;SDS011;58633;49.470;11.004;2022-07-22T09:12:25;7.93;;;6.80;;
6823;SDS011;58633;49.470;11.004;2022-07-22T09:14:57;7.47;;;6.30;;
6823;SDS011;58633;49.470;11.004;2022-07-22T09:19:58;9.38;;;6.82;;
6823;SDS011;58633;49.470;11.004;2022-07-22T09:22:38;14.82;;;6.78;;
6823;SDS011;58633;49.470;11.004;2022-07-22T09:25:25;8.27;;;7.07;;
6823;SDS011;58633;49.470;11.004;2022-07-22T09:27:54;9.70;;;7.25;;
6823;SDS011;58633;49.470;11.004;2022-07-22T09:30:34;8.10;;;6.18;;
6823;SDS011;58633;49.470;11.004;2022-07-22T09:33:16;8.18;;;6.55;;
6823;SDS011;58633;49.470;11.004;2022-07-22T09:35:42;14.18;;;7.20;;
6823;SDS011;58633;49.470;11.004;2022-07-22T09:38:10;24.63;;;7.72;;
6823;SDS011;58633;49.470;11.004;2022-07-22T09:40:41;14.80;;;6.85;;
6823;SDS011;58633;49.470;11.004;2022-07-22T09:43:09;12.00;;;6.57;;
6823;SDS011;58633;49.470;11.004;2022-07-22T09:45:59;11.05;;;6.70;;
6823;SDS011;58633;49.470;11.004;2022-07-22T09:48:25;13.57;;;6.55;;
6823;SDS011;58633;49.470;11.004;2022-07-22T09:50:52;9.02;;;6.78;;
6823;SDS011;58633;49.470;11.004;2022-07-22T09:53:19;10.55;;;6.95;;
6823;SDS011;58633;49.470;11.004;2022-07-22T09:55:49;11.10;;;7.05;;
6823;SDS011;58633;49.470;11.004;2022-07-22T09:58:14;16.08;;;7.75;;
6823;SDS011;58633;49.470;11.004;2022-07-22T10:00:40;23.58;;;8.88;;
6823;SDS011;58633;49.470;11.004;2022-07-22T10:03:08;13.85;;;7.80;;
6823;SDS011;58633;49.470;11.004;2022-07-22T10:05:40;11.02;;;7.47;;
6823;SDS011;58633;49.470;11.004;2022-07-22T10:08:07;15.95;;;7.55;;
6823;SDS011;58633;49.470;11.004;2022-07-22T10:10:33;16.35;;;7.95;;
6823;SDS011;58633;49.470;11.004;2022-07-22T10:13:03;12.68;;;7.72;;
6823;SDS011;58633;49.470;11.004;2022-07-22T10:15:30;11.77;;;7.45;;
6823;SDS011;58633;49.470;11.004;2022-07-22T10:17:57;11.43;;;7.75;;
6823;SDS011;58633;49.470;11.004;2022-07-22T10:20:32;11.10;;;7.97;;
6823;SDS011;58633;49.470;11.004;2022-07-22T10:22:59;7.88;;;7.00;;
6823;SDS011;58633;49.470;11.004;2022-07-22T10:25:27;8.68;;;7.35;;
6823;SDS011;58633;49.470;11.004;2022-07-22T10:28:05;8.38;;;7.53;;
6823;SDS011;58633;49.470;11.004;2022-07-22T10:30:33;11.15;;;7.20;;
6823;SDS011;58633;49.470;11.004;2022-07-22T10:33:02;9.10;;;7.55;;
6823;SDS011;58633;49.470;11.004;2022-07-22T10:35:28;9.70;;;7.13;;
6823;SDS011;58633;49.470;11.004;2022-07-22T10:37:56;8.68;;;7.47;;
6823;SDS011;58633;49.470;11.004;2022-07-22T10:40:24;8.13;;;7.05;;
6823;SDS011;58633;49.470;11.004;2022-07-22T10:45:25;8.27;;;6.93;;
6823;SDS011;58633;49.470;11.004;2022-07-22T10:47:57;8.57;;;7.30;;
6823;SDS011;58633;49.470;11.004;2022-07-22T10:50:37;7.93;;;6.80;;
6823;SDS011;58633;49.470;11.004;2022-07-22T10:53:14;7.28;;;6.55;;
6823;SDS011;58633;49.470;11.004;2022-07-22T10:55:58;9.10;;;6.85;;
6823;SDS011;58633;49.470;11.004;2022-07-22T10:58:48;7.72;;;7.00;;
6823;SDS011;58633;49.470;11.004;2022-07-22T11:01:25;7.75;;;6.65;;
6823;SDS011;58633;49.470;11.004;2022-07-22T11:03:55;7.18;;;6.32;;
6823;SDS011;58633;49.470;11.004;2022-07-22T11:06:31;7.40;;;6.38;;
6823;SDS011;58633;49.470;11.004;2022-07-22T11:08:57;7.97;;;6.72;;
6823;SDS011;58633;49.470;11.004;2022-07-22T11:13:59;7.97;;;6.80;;
6823;SDS011;58633;49.470;11.004;2022-07-22T11:16:25;8.30;;;6.20;;
6823;SDS011;58633;49.470;11.004;2022-07-22T11:18:57;7.85;;;6.82;;
6823;SDS011;58633;49.470;11.004;2022-07-22T11:21:26;8.48;;;6.88;;
6823;SDS011;58633;49.470;11.004;2022-07-22T11:23:54;6.97;;;6.25;;
6823;SDS011;58633;49.470;11.004;2022-07-22T11:29:07;6.47;;;5.85;;
6823;SDS011;58633;49.470;11.004;2022-07-22T11:31:34;7.40;;;5.95;;
6823;SDS011;58633;49.470;11.004;2022-07-22T11:34:04;6.70;;;6.10;;
6823;SDS011;58633;49.470;11.004;2022-07-22T11:36:32;8.77;;;6.18;;
6823;SDS011;58633;49.470;11.004;2022-07-22T11:38:59;6.97;;;6.18;;
6823;SDS011;58633;49.470;11.004;2022-07-22T11:41:25;6.60;;;6.00;;
6823;SDS011;58633;49.470;11.004;2022-07-22T11:43:54;7.35;;;6.65;;
6823;SDS011;58633;49.470;11.004;2022-07-22T11:46:19;6.78;;;5.93;;
6823;SDS011;58633;49.470;11.004;2022-07-22T11:48:45;7.47;;;6.30;;
6823;SDS011;58633;49.470;11.004;2022-07-22T11:51:11;6.90;;;6.20;;
6823;SDS011;58633;49.470;11.004;2022-07-22T11:53:39;6.50;;;5.78;;
6823;SDS011;58633;49.470;11.004;2022-07-22T11:56:07;7.07;;;6.43;;
6823;SDS011;58633;49.470;11.004;2022-07-22T11:58:35;7.07;;;6.13;;
6823;SDS011;58633;49.470;11.004;2022-07-22T12:01:03;7.43;;;6.18;;
6823;SDS011;58633;49.470;11.004;2022-07-22T12:03:33;7.82;;;5.57;;
6823;SDS011;58633;49.470;11.004;2022-07-22T12:06:01;7.97;;;6.03;;
6823;SDS011;58633;49.470;11.004;2022-07-22T12:08:28;6.75;;;6.15;;
6823;SDS011;58633;49.470;11.004;2022-07-22T12:10:56;6.38;;;5.78;;
6823;SDS011;58633;49.470;11.004;2022-07-22T12:13:27;6.53;;;5.65;;
6823;SDS011;58633;49.470;11.004;2022-07-22T12:15:55;7.30;;;5.88;;
6823;SDS011;58633;49.470;11.004;2022-07-22T12:18:21;7.45;;;6.40;;
6823;SDS011;58633;49.470;11.004;2022-07-22T12:20:48;6.85;;;6.10;;
6823;SDS011;58633;49.470;11.004;2022-07-22T12:23:15;6.45;;;5.78;;
6823;SDS011;58633;49.470;11.004;2022-07-22T12:25:50;6.03;;;5.38;;
6823;SDS011;58633;49.470;11.004;2022-07-22T12:28:20;6.50;;;5.55;;
6823;SDS011;58633;49.470;11.004;2022-07-22T12:30:47;6.47;;;5.88;;
6823;SDS011;58633;49.470;11.004;2022-07-22T12:33:14;7.93;;;6.00;;
6823;SDS011;58633;49.470;11.004;2022-07-22T12:35:41;5.78;;;5.28;;
6823;SDS011;58633;49.470;11.004;2022-07-22T12:38:08;6.55;;;5.80;;
6823;SDS011;58633;49.470;11.004;2022-07-22T12:40:35;6.03;;;5.40;;
6823;SDS011;58633;49.470;11.004;2022-07-22T12:43:03;5.97;;;5.38;;
6823;SDS011;58633;49.470;11.004;2022-07-22T12:45:32;6.10;;;5.47;;
6823;SDS011;58633;49.470;11.004;2022-07-22T12:50:31;5.72;;;5.20;;
6823;SDS011;58633;49.470;11.004;2022-07-22T12:55:33;6.07;;;5.18;;
6823;SDS011;58633;49.470;11.004;2022-07-22T12:58:01;5.90;;;4.95;;
6823;SDS011;58633;49.470;11.004;2022-07-22T13:00:30;5.38;;;4.85;;
6823;SDS011;58633;49.470;11.004;2022-07-22T13:02:58;5.50;;;5.00;;
6823;SDS011;58633;49.470;11.004;2022-07-22T13:05:26;6.25;;;5.50;;
6823;SDS011;58633;49.470;11.004;2022-07-22T13:07:52;6.35;;;5.40;;
6823;SDS011;58633;49.470;11.004;2022-07-22T13:10:19;6.30;;;5.15;;
6823;SDS011;58633;49.470;11.004;2022-07-22T13:12:48;6.35;;;5.40;;
6823;SDS011;58633;49.470;11.004;2022-07-22T13:15:15;7.20;;;5.50;;
6823;SDS011;58633;49.470;11.004;2022-07-22T13:17:41;5.65;;;4.65;;
6823;SDS011;58633;49.470;11.004;2022-07-22T13:20:08;6.07;;;5.35;;
6823;SDS011;58633;49.470;11.004;2022-07-22T13:22:34;6.10;;;5.40;;
6823;SDS011;58633;49.470;11.004;2022-07-22T13:25:00;5.28;;;4.88;;
6823;SDS011;58633;49.470;11.004;2022-07-22T13:27:26;6.80;;;4.95;;
6823;SDS011;58633;49.470;11.004;2022-07-22T13:29:51;5.68;;;4.93;;
6823;SDS011;58633;49.470;11.004;2022-07-22T13:32:17;5.88;;;4.93;;
6823;SDS011;58633;49.470;11.004;2022-07-22T13:34:43;5.68;;;5.13;;
6823;SDS011;58633;49.470;11.004;2022-07-22T13:37:08;6.40;;;5.05;;
6823;SDS011;58633;49.470;11.004;2022-07-22T13:39:34;5.82;;;5.20;;
6823;SDS011;58633;49.470;11.004;2022-07-22T13:41:59;6.38;;;5.10;;
6823;SDS011;58633;49.470;11.004;2022-07-22T13:44:25;5.80;;;5.20;;
6823;SDS011;58633;49.470;11.004;2022-07-22T13:46:51;5.28;;;4.82;;
6823;SDS011;58633;49.470;11.004;2022-07-22T13:49:16;5.97;;;5.10;;
6823;SDS011;58633;49.470;11.004;2022-07-22T13:51:43;6.10;;;5.30;;
6823;SDS011;58633;49.470;11.004;2022-07-22T13:54:08;4.90;;;4.50;;
6823;SDS011;58633;49.470;11.004;2022-07-22T13:56:34;5.20;;;4.80;;
6823;SDS011;58633;49.470;11.004;2022-07-22T13:59:00;5.95;;;5.13;;
6823;SDS011;58633;49.470;11.004;2022-07-22T14:01:27;5.25;;;4.85;;
6823;SDS011;58633;49.470;11.004;2022-07-22T14:03:53;4.72;;;4.32;;
6823;SDS011;58633;49.470;11.004;2022-07-22T14:06:18;6.25;;;4.68;;
6823;SDS011;58633;49.470;11.004;2022-07-22T14:08:44;7.57;;;5.07;;
6823;SDS011;58633;49.470;11.004;2022-07-22T14:11:10;6.40;;;4.97;;
6823;SDS011;58633;49.470;11.004;2022-07-22T14:13:35;5.18;;;4.50;;
6823;SDS011;58633;49.470;11.004;2022-07-22T14:16:01;5.25;;;4.60;;
6823;SDS011;58633;49.470;11.004;2022-07-22T14:18:45;4.93;;;4.53;;
6823;SDS011;58633;49.470;11.004;2022-07-22T14:21:11;5.10;;;4.70;;
6823;SDS011;58633;49.470;11.004;2022-07-22T14:23:36;5.18;;;4.78;;
6823;SDS011;58633;49.470;11.004;2022-07-22T14:26:02;6.28;;;4.80;;
6823;SDS011;58633;49.470;11.004;2022-07-22T14:28:28;5.50;;;4.43;;
6823;SDS011;58633;49.470;11.004;2022-07-22T14:30:53;5.70;;;4.47;;
6823;SDS011;58633;49.470;11.004;2022-07-22T14:33:19;6.28;;;4.57;;
6823;SDS011;58633;49.470;11.004;2022-07-22T14:35:44;4.85;;;4.38;;
6823;SDS011;58633;49.470;11.004;2022-07-22T14:38:10;5.07;;;4.57;;
6823;SDS011;58633;49.470;11.004;2022-07-22T14:40:35;5.30;;;4.80;;
6823;SDS011;58633;49.470;11.004;2022-07-22T14:43:02;6.55;;;5.22;;
6823;SDS011;58633;49.470;11.004;2022-07-22T14:45:27;4.97;;;4.57;;
6823;SDS011;58633;49.470;11.004;2022-07-22T14:47:53;4.85;;;4.45;;
6823;SDS011;58633;49.470;11.004;2022-07-22T14:50:18;8.05;;;4.63;;
6823;SDS011;58633;49.470;11.004;2022-07-22T14:52:45;5.30;;;4.80;;
6823;SDS011;58633;49.470;11.004;2022-07-22T14:55:10;5.20;;;4.80;;
6823;SDS011;58633;49.470;11.004;2022-07-22T14:57:36;5.05;;;4.55;;
6823;SDS011;58633;49.470;11.004;2022-07-22T15:00:02;4.70;;;4.30;;